createdAt,value
2023-01-31T00:01:55.451Z,99210.53
2023-01-31T00:04:23.075Z,99214.95
2023-01-31T00:06:52.153Z,99213.71
2023-01-31T00:09:20.223Z,99212.77
2023-01-31T00:11:47.832Z,99215.66
2023-01-31T00:14:20.532Z,99221.66
2023-01-31T00:16:48.831Z,99219.13
2023-01-31T00:19:16.659Z,99227.04
2023-01-31T00:21:47.464Z,99226.00
2023-01-31T00:24:15.871Z,99227.83
2023-01-31T00:26:43.691Z,99231.58
2023-01-31T00:29:11.769Z,99233.27
2023-01-31T00:31:40.172Z,99241.98
2023-01-31T00:34:08.574Z,99241.03
2023-01-31T00:36:37.305Z,99241.48
2023-01-31T00:39:07.355Z,99248.70
2023-01-31T00:41:37.494Z,99251.77
2023-01-31T00:44:06.397Z,99253.73
2023-01-31T00:46:34.664Z,99255.16
2023-01-31T00:49:03.479Z,99255.78
2023-01-31T00:51:31.686Z,99259.09
2023-01-31T00:53:59.365Z,99264.13
2023-01-31T00:56:27.394Z,99263.86
2023-01-31T00:58:55.757Z,99264.67
2023-01-31T01:01:26.600Z,99263.68
2023-01-31T01:03:55.866Z,99269.54
2023-01-31T01:06:24.153Z,99269.60
2023-01-31T01:08:52.813Z,99268.17
2023-01-31T01:11:23.870Z,99264.77
2023-01-31T01:13:52.422Z,99275.10
2023-01-31T01:16:24.200Z,99274.59
2023-01-31T01:18:54.859Z,99285.29
2023-01-31T01:21:25.470Z,99283.75
2023-01-31T01:23:55.333Z,99286.83
2023-01-31T01:26:26.211Z,99285.17
2023-01-31T01:28:55.472Z,99286.20
2023-01-31T01:31:31.136Z,99285.13
2023-01-31T01:34:01.581Z,99287.98
2023-01-31T01:36:29.446Z,99292.27
2023-01-31T01:38:57.189Z,99289.88
2023-01-31T01:41:25.262Z,99292.60
2023-01-31T01:43:58.287Z,99290.92
2023-01-31T01:46:31.812Z,99292.63
2023-01-31T01:49:20.618Z,99296.80
2023-01-31T01:51:50.806Z,99297.12
2023-01-31T01:54:29.424Z,99303.13
2023-01-31T01:57:01.961Z,99309.13
2023-01-31T01:59:34.982Z,99305.79
2023-01-31T02:02:03.883Z,99311.77
2023-01-31T02:04:37.001Z,99316.30
2023-01-31T02:07:05.658Z,99318.61
2023-01-31T02:10:00.124Z,99325.05
2023-01-31T02:12:31.911Z,99334.78
2023-01-31T02:15:00.174Z,99338.45
2023-01-31T02:17:28.102Z,99342.28
2023-01-31T02:20:01.995Z,99348.85
2023-01-31T02:22:48.022Z,99350.36
2023-01-31T02:25:37.875Z,99362.91
2023-01-31T02:28:36.120Z,99371.48
2023-01-31T02:31:31.017Z,99372.42
2023-01-31T02:34:16.933Z,99375.99
2023-01-31T02:37:24.345Z,99375.44
2023-01-31T02:40:10.004Z,99373.50
2023-01-31T02:43:02.810Z,99382.16
2023-01-31T02:46:07.849Z,99384.11
2023-01-31T02:48:41.647Z,99387.55
2023-01-31T02:51:41.293Z,99391.06
2023-01-31T02:54:18.567Z,99397.41
2023-01-31T02:56:48.223Z,99406.16
2023-01-31T02:59:22.119Z,99406.80
2023-01-31T03:02:02.950Z,99420.42
2023-01-31T03:04:32.922Z,99421.67
2023-01-31T03:07:13.636Z,99436.63
2023-01-31T03:10:13.446Z,99442.83
2023-01-31T03:12:57.564Z,99447.45
2023-01-31T03:16:12.061Z,99448.89
2023-01-31T03:19:13.831Z,99449.97
2023-01-31T03:22:05.796Z,99454.39
2023-01-31T03:24:33.929Z,99454.52
2023-01-31T03:27:04.663Z,99460.15
2023-01-31T03:29:36.336Z,99466.66
2023-01-31T03:32:36.597Z,99474.63
2023-01-31T03:35:05.213Z,99477.30
2023-01-31T03:37:39.208Z,99478.32
2023-01-31T03:40:24.160Z,99480.18
2023-01-31T03:43:02.585Z,99478.47
2023-01-31T03:45:54.826Z,99479.70
2023-01-31T03:48:27.518Z,99484.15
2023-01-31T03:50:59.891Z,99479.16
2023-01-31T03:53:46.654Z,99475.73
2023-01-31T03:56:17.984Z,99482.18
2023-01-31T03:58:51.118Z,99489.35
2023-01-31T04:01:21.256Z,99489.77
2023-01-31T04:03:55.733Z,99493.98
2023-01-31T04:06:23.887Z,99496.45
2023-01-31T04:08:52.077Z,99501.21
2023-01-31T04:11:22.138Z,99504.27
2023-01-31T04:13:49.885Z,99517.58
2023-01-31T04:16:17.666Z,99517.38
2023-01-31T04:18:45.301Z,99515.97
2023-01-31T04:21:15.297Z,99517.38
2023-01-31T04:23:43.511Z,99526.87
2023-01-31T04:26:11.297Z,99536.28
2023-01-31T04:28:39.181Z,99535.17
2023-01-31T04:31:07.002Z,99538.30
2023-01-31T04:33:34.786Z,99541.02
2023-01-31T04:36:02.489Z,99549.73
2023-01-31T04:38:30.170Z,99549.56
2023-01-31T04:40:57.791Z,99555.81
2023-01-31T04:43:25.502Z,99555.64
2023-01-31T04:45:53.342Z,99551.63
2023-01-31T04:48:21.024Z,99564.05
2023-01-31T04:50:48.653Z,99564.16
2023-01-31T04:53:16.292Z,99570.21
2023-01-31T04:55:43.948Z,99570.52
2023-01-31T04:58:11.549Z,99575.30
2023-01-31T05:00:39.194Z,99577.98
2023-01-31T05:03:07.323Z,99579.71
2023-01-31T05:05:36.407Z,99584.30
2023-01-31T05:08:04.720Z,99584.94
2023-01-31T05:10:34.123Z,99588.96
2023-01-31T05:13:01.928Z,99590.86
2023-01-31T05:15:29.882Z,99595.56
2023-01-31T05:18:03.488Z,99597.71
2023-01-31T05:20:35.029Z,99603.80
2023-01-31T05:23:03.766Z,99613.27
2023-01-31T05:25:31.749Z,99618.42
2023-01-31T05:27:59.410Z,99624.39
2023-01-31T05:30:27.521Z,99626.62
2023-01-31T05:32:55.482Z,99631.81
2023-01-31T05:35:23.398Z,99629.54
2023-01-31T05:37:54.128Z,99635.98
2023-01-31T05:40:22.477Z,99643.01
2023-01-31T05:42:54.889Z,99647.91
2023-01-31T05:45:23.437Z,99651.13
2023-01-31T05:47:51.320Z,99653.84
2023-01-31T05:50:19.950Z,99657.92
2023-01-31T05:52:56.324Z,99660.64
2023-01-31T05:55:24.069Z,99664.52
2023-01-31T05:57:53.212Z,99665.48
2023-01-31T06:00:21.828Z,99668.83
2023-01-31T06:02:49.750Z,99673.68
2023-01-31T06:05:17.906Z,99679.54
2023-01-31T06:07:45.841Z,99688.13
2023-01-31T06:10:13.725Z,99691.36
2023-01-31T06:12:41.614Z,99697.71
2023-01-31T06:15:09.583Z,99700.06
2023-01-31T06:17:37.270Z,99710.63
2023-01-31T06:20:05.790Z,99724.67
2023-01-31T06:22:34.043Z,99726.80
2023-01-31T06:25:01.853Z,99735.55
2023-01-31T06:27:33.126Z,99738.20
2023-01-31T06:30:00.908Z,99742.23
2023-01-31T06:32:28.937Z,99742.94
2023-01-31T06:34:56.629Z,99749.44
2023-01-31T06:37:24.629Z,99753.84
2023-01-31T06:39:52.265Z,99748.17
2023-01-31T06:42:19.914Z,99753.77
2023-01-31T06:44:47.605Z,99756.88
2023-01-31T06:47:15.776Z,99763.09
2023-01-31T06:49:43.451Z,99770.09
2023-01-31T06:52:12.439Z,99768.41
2023-01-31T06:54:41.581Z,99773.34
2023-01-31T06:57:09.303Z,99778.39
2023-01-31T06:59:37.018Z,99779.98
2023-01-31T07:02:04.675Z,99780.31
2023-01-31T07:04:32.758Z,99783.30
2023-01-31T07:07:00.493Z,99788.58
2023-01-31T07:09:30.214Z,99787.98
2023-01-31T07:11:57.865Z,99794.83
2023-01-31T07:14:27.983Z,99796.60
2023-01-31T07:16:55.606Z,99803.41
2023-01-31T07:19:23.279Z,99804.57
2023-01-31T07:21:51.319Z,99809.44
2023-01-31T07:24:19.044Z,99817.70
2023-01-31T07:26:47.096Z,99821.70
2023-01-31T07:29:14.742Z,99829.54
2023-01-31T07:31:42.410Z,99828.88
2023-01-31T07:34:10.048Z,99829.70
2023-01-31T07:36:37.714Z,99833.10
2023-01-31T07:39:06.306Z,99831.86
2023-01-31T07:41:34.001Z,99842.55
2023-01-31T07:44:10.561Z,99844.96
2023-01-31T07:46:40.462Z,99844.00
2023-01-31T07:49:11.563Z,99850.65
2023-01-31T07:51:39.242Z,99854.53
2023-01-31T07:54:07.084Z,99859.64
2023-01-31T07:56:34.735Z,99867.90
2023-01-31T07:59:02.431Z,99869.55
2023-01-31T08:01:50.683Z,99867.56
2023-01-31T08:04:22.009Z,99871.70
2023-01-31T08:06:55.499Z,99876.93
2023-01-31T08:09:23.443Z,99880.63
2023-01-31T08:11:51.905Z,99884.94
2023-01-31T08:14:25.196Z,99889.55
2023-01-31T08:16:53.005Z,99893.40
2023-01-31T08:19:20.723Z,99895.27
2023-01-31T08:21:48.912Z,99898.02
2023-01-31T08:24:16.678Z,99903.02
2023-01-31T08:26:44.597Z,99903.89
2023-01-31T08:29:12.430Z,99908.35
2023-01-31T08:31:41.360Z,99909.91
2023-01-31T08:34:09.279Z,99907.23
2023-01-31T08:36:38.725Z,99907.20
2023-01-31T08:39:06.938Z,99910.42
2023-01-31T08:41:36.874Z,99917.44
2023-01-31T08:44:06.473Z,99918.30
2023-01-31T08:46:36.620Z,99920.92
2023-01-31T08:49:06.563Z,99918.30
2023-01-31T08:51:34.200Z,99922.60
2023-01-31T08:54:02.127Z,99919.48
2023-01-31T08:56:30.269Z,99925.80
2023-01-31T08:58:58.212Z,99927.41
2023-01-31T09:01:26.189Z,99930.70
2023-01-31T09:03:57.997Z,99928.34
2023-01-31T09:06:27.414Z,99927.75
2023-01-31T09:08:56.929Z,99927.99
2023-01-31T09:11:27.785Z,99933.79
2023-01-31T09:13:55.425Z,99937.89
2023-01-31T09:16:23.203Z,99945.05
2023-01-31T09:18:51.628Z,99945.75
2023-01-31T09:21:21.886Z,99948.56
2023-01-31T09:23:55.208Z,99950.46
2023-01-31T09:26:22.902Z,99954.63
2023-01-31T09:28:51.204Z,99954.20
2023-01-31T09:31:20.871Z,99955.95
2023-01-31T09:33:48.601Z,99956.12
2023-01-31T09:36:20.268Z,99958.23
2023-01-31T09:38:48.623Z,99961.56
2023-01-31T09:41:26.192Z,99959.30
2023-01-31T09:43:58.808Z,99964.27
2023-01-31T09:46:32.466Z,99965.19
2023-01-31T09:49:03.510Z,99967.16
2023-01-31T09:51:33.531Z,99970.77
2023-01-31T09:54:07.263Z,99971.15
2023-01-31T09:56:50.139Z,99971.76
2023-01-31T09:59:36.119Z,99972.02
2023-01-31T10:02:17.019Z,99977.48
2023-01-31T10:05:19.313Z,99980.66
2023-01-31T10:08:12.602Z,99979.20
2023-01-31T10:10:49.565Z,99978.61
2023-01-31T10:13:26.657Z,99976.98
2023-01-31T10:16:00.735Z,99979.81
2023-01-31T10:18:30.870Z,99979.73
2023-01-31T10:21:06.528Z,99973.18
2023-01-31T10:23:40.546Z,99975.30
2023-01-31T10:26:15.002Z,99976.21
2023-01-31T10:28:58.176Z,99975.48
2023-01-31T10:31:44.569Z,99971.41
2023-01-31T10:34:34.681Z,99968.06
2023-01-31T10:37:14.175Z,99965.81
2023-01-31T10:39:50.796Z,99959.49
2023-01-31T10:42:37.429Z,99963.55
2023-01-31T10:45:20.415Z,99962.34
2023-01-31T10:48:01.098Z,99961.77
2023-01-31T10:50:53.492Z,99968.21
2023-01-31T10:53:21.135Z,99966.57
2023-01-31T10:56:07.446Z,99972.64
2023-01-31T10:58:36.567Z,99973.98
2023-01-31T11:01:11.752Z,99975.29
2023-01-31T11:03:40.946Z,99977.77
2023-01-31T11:06:11.893Z,99976.42
2023-01-31T11:08:57.081Z,99978.90
2023-01-31T11:11:27.268Z,99979.77
2023-01-31T11:13:56.306Z,99980.66
2023-01-31T11:16:24.784Z,99980.57
2023-01-31T11:18:53.802Z,99978.43
2023-01-31T11:21:25.358Z,99984.89
2023-01-31T11:24:01.608Z,99980.41
2023-01-31T11:26:34.027Z,99983.42
2023-01-31T11:29:08.245Z,99983.64
2023-01-31T11:31:40.663Z,99983.05
2023-01-31T11:34:34.730Z,99984.59
2023-01-31T11:37:14.667Z,99983.18
2023-01-31T11:39:42.393Z,99977.67
2023-01-31T11:42:17.219Z,99975.48
2023-01-31T11:44:58.702Z,99972.14
2023-01-31T11:47:43.967Z,99971.19
2023-01-31T11:50:37.503Z,99970.45
2023-01-31T11:53:18.894Z,99968.15
2023-01-31T11:55:49.039Z,99962.23
2023-01-31T11:58:24.507Z,99963.24
2023-01-31T12:01:01.896Z,99961.16
2023-01-31T12:03:31.051Z,99958.83
2023-01-31T12:06:05.257Z,99959.23
2023-01-31T12:08:38.711Z,99955.22
2023-01-31T12:11:33.445Z,99950.41
2023-01-31T12:14:07.147Z,99944.20
2023-01-31T12:16:37.303Z,99942.48
2023-01-31T12:19:25.632Z,99944.67
2023-01-31T12:22:06.055Z,99941.23
2023-01-31T12:24:43.966Z,99942.00
2023-01-31T12:27:34.934Z,99937.95
2023-01-31T12:30:19.478Z,99935.85
2023-01-31T12:33:20.183Z,99935.88
2023-01-31T12:36:10.878Z,99934.34
2023-01-31T12:39:10.989Z,99932.45
2023-01-31T12:41:48.337Z,99929.41
2023-01-31T12:44:31.035Z,99928.86
2023-01-31T12:47:17.199Z,99929.44
2023-01-31T12:49:50.684Z,99931.45
2023-01-31T12:52:43.288Z,99935.55
2023-01-31T12:55:20.899Z,99940.91
2023-01-31T12:58:21.062Z,99942.42
2023-01-31T13:01:16.270Z,99946.43
2023-01-31T13:03:59.006Z,99950.23
2023-01-31T13:06:29.929Z,99949.48
2023-01-31T13:09:18.715Z,99940.10
2023-01-31T13:12:03.860Z,99935.48
2023-01-31T13:14:36.495Z,99934.50
2023-01-31T13:17:07.357Z,99929.25
2023-01-31T13:19:41.561Z,99930.63
2023-01-31T13:22:53.462Z,99924.23
2023-01-31T13:25:29.569Z,99922.45
2023-01-31T13:28:06.061Z,99923.27
2023-01-31T13:30:38.364Z,99914.84
2023-01-31T13:33:37.257Z,99914.40
2023-01-31T13:36:19.712Z,99916.02
2023-01-31T13:38:49.387Z,99918.16
2023-01-31T13:41:32.615Z,99920.48
2023-01-31T13:44:01.902Z,99925.73
2023-01-31T13:46:38.214Z,99925.74
2023-01-31T13:49:15.538Z,99929.27
2023-01-31T13:51:59.083Z,99930.16
2023-01-31T13:54:33.627Z,99929.67
2023-01-31T13:57:02.186Z,99924.57
2023-01-31T13:59:33.909Z,99923.34
2023-01-31T14:02:05.729Z,99918.17
2023-01-31T14:04:39.126Z,99919.58
2023-01-31T14:07:10.512Z,99916.63
2023-01-31T14:10:05.024Z,99916.73
2023-01-31T14:12:37.297Z,99915.24
2023-01-31T14:15:50.141Z,99920.01
2023-01-31T14:18:37.336Z,99915.81
2023-01-31T14:21:29.688Z,99916.73
2023-01-31T14:23:59.386Z,99912.30
2023-01-31T14:26:36.629Z,99914.76
2023-01-31T14:29:10.337Z,99914.04
2023-01-31T14:31:38.112Z,99904.13
2023-01-31T14:34:06.406Z,99904.27
2023-01-31T14:37:01.122Z,99906.09
2023-01-31T14:39:59.124Z,99904.21
2023-01-31T14:42:50.025Z,99904.48
2023-01-31T14:45:42.075Z,99899.23
2023-01-31T14:48:21.793Z,99894.64
2023-01-31T14:50:56.631Z,99895.64
2023-01-31T14:53:46.313Z,99898.57
2023-01-31T14:56:16.957Z,99896.02
2023-01-31T14:58:46.673Z,99894.73
2023-01-31T15:01:19.086Z,99898.95
2023-01-31T15:03:56.221Z,99896.20
2023-01-31T15:06:28.110Z,99895.33
2023-01-31T15:09:21.403Z,99895.26
2023-01-31T15:11:50.992Z,99900.63
2023-01-31T15:14:36.548Z,99902.31
2023-01-31T15:17:34.681Z,99900.06
2023-01-31T15:20:21.684Z,99902.08
2023-01-31T15:22:51.852Z,99898.22
2023-01-31T15:25:42.593Z,99897.60
2023-01-31T15:28:15.383Z,99897.27
2023-01-31T15:30:44.221Z,99893.73
2023-01-31T15:33:29.587Z,99892.22
2023-01-31T15:36:03.317Z,99886.02
2023-01-31T15:38:39.644Z,99889.77
2023-01-31T15:41:22.982Z,99887.65
2023-01-31T15:43:57.026Z,99887.02
2023-01-31T15:46:32.837Z,99889.02
2023-01-31T15:49:00.921Z,99883.56
2023-01-31T15:51:29.281Z,99874.66
2023-01-31T15:54:02.600Z,99874.08
2023-01-31T15:56:30.716Z,99872.23
2023-01-31T15:58:58.890Z,99872.25
2023-01-31T16:01:30.907Z,99872.98
2023-01-31T16:04:00.066Z,99878.89
2023-01-31T16:06:37.726Z,99879.98
2023-01-31T16:09:07.000Z,99880.63
2023-01-31T16:11:36.258Z,99880.29
2023-01-31T16:14:07.657Z,99885.78
2023-01-31T16:16:36.331Z,99883.59
2023-01-31T16:19:05.253Z,99888.88
2023-01-31T16:21:42.718Z,99888.62
2023-01-31T16:24:16.072Z,99885.58
2023-01-31T16:26:53.117Z,99881.79
2023-01-31T16:29:22.744Z,99877.83
2023-01-31T16:31:55.448Z,99875.81
2023-01-31T16:34:32.950Z,99875.98
2023-01-31T16:37:06.232Z,99868.95
2023-01-31T16:39:34.781Z,99867.52
2023-01-31T16:42:07.245Z,99866.93
2023-01-31T16:44:38.428Z,99859.74
2023-01-31T16:47:06.057Z,99858.28
2023-01-31T16:49:37.338Z,99857.31
2023-01-31T16:52:27.509Z,99850.23
2023-01-31T16:55:01.665Z,99845.45
2023-01-31T16:57:35.864Z,99845.70
2023-01-31T17:00:27.679Z,99843.67
2023-01-31T17:02:57.351Z,99838.74
2023-01-31T17:05:29.839Z,99836.69
2023-01-31T17:07:58.556Z,99831.61
2023-01-31T17:10:28.975Z,99828.55
2023-01-31T17:13:00.093Z,99821.92
2023-01-31T17:15:27.893Z,99820.24
2023-01-31T17:17:56.482Z,99813.01
2023-01-31T17:20:25.491Z,99816.42
2023-01-31T17:23:02.328Z,99813.91
2023-01-31T17:25:34.003Z,99809.08
2023-01-31T17:28:01.905Z,99804.48
2023-01-31T17:30:31.381Z,99799.77
2023-01-31T17:33:00.195Z,99802.63
2023-01-31T17:35:39.912Z,99800.12
2023-01-31T17:38:07.821Z,99790.48
2023-01-31T17:40:37.379Z,99791.25
2023-01-31T17:43:05.660Z,99788.77
2023-01-31T17:45:33.349Z,99781.56
2023-01-31T17:48:01.043Z,99776.03
2023-01-31T17:50:29.059Z,99772.06
2023-01-31T17:52:57.205Z,99766.49
2023-01-31T17:55:25.152Z,99761.64
2023-01-31T17:57:52.781Z,99757.69
2023-01-31T18:00:21.269Z,99750.39
2023-01-31T18:02:49.019Z,99744.64
2023-01-31T18:05:24.480Z,99745.56
2023-01-31T18:07:59.199Z,99745.52
2023-01-31T18:10:26.828Z,99737.25
2023-01-31T18:12:54.520Z,99734.73
2023-01-31T18:15:22.499Z,99728.14
2023-01-31T18:17:50.522Z,99725.25
2023-01-31T18:20:19.314Z,99721.22
2023-01-31T18:22:47.057Z,99719.42
2023-01-31T18:25:14.779Z,99714.71
2023-01-31T18:27:42.504Z,99717.48
2023-01-31T18:30:10.860Z,99708.23
2023-01-31T18:32:38.521Z,99704.30
2023-01-31T18:35:06.762Z,99700.33
2023-01-31T18:37:34.474Z,99694.34
2023-01-31T18:40:02.112Z,99689.20
2023-01-31T18:42:29.759Z,99682.83
2023-01-31T18:44:57.562Z,99681.90
2023-01-31T18:47:25.231Z,99675.63
2023-01-31T18:49:52.934Z,99675.05
2023-01-31T18:52:20.579Z,99670.04
2023-01-31T18:54:49.431Z,99664.28
2023-01-31T18:57:17.054Z,99661.56
2023-01-31T18:59:44.711Z,99657.48
2023-01-31T19:02:12.433Z,99657.19
2023-01-31T19:04:40.243Z,99657.60
2023-01-31T19:07:07.991Z,99655.55
2023-01-31T19:09:35.742Z,99652.06
2023-01-31T19:12:03.634Z,99651.10
2023-01-31T19:14:31.413Z,99646.43
2023-01-31T19:16:59.497Z,99643.16
2023-01-31T19:19:27.160Z,99637.04
2023-01-31T19:21:54.891Z,99634.98
2023-01-31T19:24:22.760Z,99631.45
2023-01-31T19:26:50.502Z,99629.42
2023-01-31T19:29:18.394Z,99622.29
2023-01-31T19:31:46.099Z,99619.95
2023-01-31T19:34:13.822Z,99609.64
2023-01-31T19:36:44.490Z,99601.03
2023-01-31T19:39:13.030Z,99593.15
2023-01-31T19:41:42.292Z,99590.66
2023-01-31T19:44:10.186Z,99592.69
2023-01-31T19:46:38.059Z,99585.98
2023-01-31T19:49:05.809Z,99579.42
2023-01-31T19:51:33.885Z,99572.11
2023-01-31T19:54:02.785Z,99568.38
2023-01-31T19:56:31.845Z,99557.70
2023-01-31T19:59:00.249Z,99553.61
2023-01-31T20:01:27.899Z,99546.79
2023-01-31T20:03:56.692Z,99538.77
2023-01-31T20:06:27.339Z,99534.95
2023-01-31T20:08:57.483Z,99533.77
2023-01-31T20:11:28.061Z,99527.22
2023-01-31T20:13:57.917Z,99521.38
2023-01-31T20:16:26.252Z,99517.70
2023-01-31T20:18:57.359Z,99514.70
2023-01-31T20:21:25.015Z,99508.02
2023-01-31T20:23:52.841Z,99499.63
2023-01-31T20:26:22.684Z,99494.39
2023-01-31T20:28:50.604Z,99492.08
2023-01-31T20:31:18.679Z,99487.48
2023-01-31T20:33:46.382Z,99482.42
2023-01-31T20:36:14.392Z,99478.47
2023-01-31T20:38:42.168Z,99472.89
2023-01-31T20:41:10.217Z,99470.83
2023-01-31T20:43:38.184Z,99467.30
2023-01-31T20:46:08.601Z,99467.98
2023-01-31T20:48:36.695Z,99467.89
2023-01-31T20:51:05.305Z,99457.04
2023-01-31T20:53:33.401Z,99452.55
2023-01-31T20:56:03.951Z,99448.98
2023-01-31T20:58:34.400Z,99444.39
2023-01-31T21:01:05.493Z,99438.56
2023-01-31T21:03:34.668Z,99438.21
2023-01-31T21:06:03.908Z,99432.68
2023-01-31T21:08:32.357Z,99427.44
2023-01-31T21:11:03.785Z,99417.30
2023-01-31T21:13:32.944Z,99409.52
2023-01-31T21:16:03.587Z,99400.42
2023-01-31T21:18:34.094Z,99397.42
2023-01-31T21:21:10.452Z,99390.30
2023-01-31T21:23:39.576Z,99391.17
2023-01-31T21:26:10.159Z,99384.26
2023-01-31T21:28:40.035Z,99376.39
2023-01-31T21:31:11.028Z,99371.95
2023-01-31T21:33:38.759Z,99367.79
2023-01-31T21:36:11.481Z,99365.54
2023-01-31T21:38:39.685Z,99361.78
2023-01-31T21:41:27.744Z,99362.16
2023-01-31T21:43:56.225Z,99364.02
2023-01-31T21:46:25.691Z,99354.58
2023-01-31T21:48:53.758Z,99353.81
2023-01-31T21:51:24.460Z,99346.58
2023-01-31T21:53:55.196Z,99341.42
2023-01-31T21:56:25.394Z,99330.35
2023-01-31T21:58:54.862Z,99325.97
2023-01-31T22:01:26.611Z,99326.32
2023-01-31T22:03:55.024Z,99318.56
2023-01-31T22:06:25.870Z,99314.30
2023-01-31T22:08:56.090Z,99311.64
2023-01-31T22:11:24.326Z,99308.06
2023-01-31T22:13:55.806Z,99306.16
2023-01-31T22:16:24.139Z,99297.95
2023-01-31T22:18:52.845Z,99291.80
2023-01-31T22:21:23.875Z,99285.40
2023-01-31T22:23:53.904Z,99277.54
2023-01-31T22:26:29.780Z,99279.86
2023-01-31T22:28:59.951Z,99280.13
2023-01-31T22:31:28.932Z,99276.49
2023-01-31T22:33:57.069Z,99271.19
2023-01-31T22:36:24.779Z,99264.22
2023-01-31T22:38:52.973Z,99258.55
2023-01-31T22:41:20.970Z,99255.54
2023-01-31T22:43:51.087Z,99247.64
2023-01-31T22:46:24.481Z,99243.34
2023-01-31T22:48:53.480Z,99241.16
2023-01-31T22:51:24.512Z,99238.55
2023-01-31T22:53:52.175Z,99238.68
2023-01-31T22:56:25.345Z,99238.42
2023-01-31T22:59:01.242Z,99238.75
2023-01-31T23:01:30.921Z,99232.61
2023-01-31T23:04:00.673Z,99229.27
2023-01-31T23:06:29.094Z,99227.61
2023-01-31T23:08:56.848Z,99226.98
2023-01-31T23:11:25.458Z,99223.79
2023-01-31T23:13:53.218Z,99222.83
2023-01-31T23:16:43.536Z,99215.19
2023-01-31T23:19:12.571Z,99218.69
2023-01-31T23:21:44.239Z,99219.86
2023-01-31T23:24:14.445Z,99214.61
2023-01-31T23:26:43.376Z,99208.24
2023-01-31T23:29:11.426Z,99211.91
2023-01-31T23:31:39.575Z,99204.36
2023-01-31T23:34:07.710Z,99206.64
2023-01-31T23:36:35.702Z,99206.92
2023-01-31T23:39:03.891Z,99206.38
2023-01-31T23:41:31.938Z,99203.86
2023-01-31T23:43:59.598Z,99206.90
2023-01-31T23:46:27.362Z,99209.70
2023-01-31T23:48:55.047Z,99207.17
2023-01-31T23:51:22.779Z,99203.84
2023-01-31T23:53:50.396Z,99195.05
2023-01-31T23:56:18.018Z,99191.38
2023-01-31T23:58:45.819Z,99183.77
